Time;durP1;ratioP1;P1;durP2;ratioP2;P2;SDS_P1;SDS_P2;PMS_P1;PMS_P2;Temp;Humidity;BMP_temperature;BMP_pressure;BME280_temperature;BME280_humidity;BME280_pressure;Samples;Min_cycle;Max_cycle;Signal;HPM_P1;HPM_P2
2023/10/26 00:00:25;;;;;;;0.10;0.10;;;16.60;99.90;;;;;;4977900;28;20424;-75
2023/10/26 00:02:52;;;;;;;0.10;0.10;;;16.50;99.90;;;;;;4978319;28;20046;-74
2023/10/26 00:05:18;;;;;;;0.10;0.10;;;16.30;99.90;;;;;;4978636;28;20101;-74
2023/10/26 00:07:44;;;;;;;0.10;0.10;;;16.30;99.90;;;;;;4979086;28;20341;-78
2023/10/26 00:10:10;;;;;;;0.10;0.10;;;16.30;99.90;;;;;;4978858;28;20038;-77
2023/10/26 00:12:36;;;;;;;0.10;0.10;;;16.20;99.90;;;;;;4978542;28;20195;-78
2023/10/26 00:15:02;;;;;;;0.10;0.10;;;16.20;99.90;;;;;;4978946;28;20547;-75
2023/10/26 00:17:28;;;;;;;0.10;0.10;;;16.10;99.90;;;;;;4980278;28;20026;-79
2023/10/26 00:19:53;;;;;;;0.10;0.10;;;16.00;99.90;;;;;;4979321;28;20398;-74
2023/10/26 00:22:23;;;;;;;1.15;0.57;;;15.90;99.90;;;;;;4979813;28;20291;-76
2023/10/26 00:24:50;;;;;;;0.55;0.50;;;15.90;99.90;;;;;;4979999;28;20101;-75
2023/10/26 00:27:18;;;;;;;0.13;0.13;;;15.90;99.90;;;;;;4979875;28;20132;-75
2023/10/26 00:29:44;;;;;;;0.30;0.30;;;15.90;99.90;;;;;;4979098;28;20173;-75
2023/10/26 00:32:11;;;;;;;0.10;0.10;;;15.90;99.90;;;;;;4978973;28;20125;-75
2023/10/26 00:34:37;;;;;;;0.10;0.10;;;15.80;99.90;;;;;;4979417;28;20105;-77
2023/10/26 00:37:02;;;;;;;0.10;0.10;;;15.80;99.90;;;;;;4978744;28;20624;-75
2023/10/26 00:39:28;;;;;;;0.10;0.10;;;15.70;99.90;;;;;;4979325;28;20250;-75
2023/10/26 00:41:55;;;;;;;0.10;0.10;;;15.70;99.90;;;;;;4978597;28;20054;-75
2023/10/26 00:44:22;;;;;;;0.10;0.10;;;15.80;99.90;;;;;;4978474;28;20109;-74
2023/10/26 00:46:50;;;;;;;0.10;0.10;;;15.70;99.90;;;;;;4978853;28;20290;-74
2023/10/26 00:49:18;;;;;;;0.20;0.20;;;15.70;99.90;;;;;;4978863;28;20402;-79
2023/10/26 00:51:57;;;;;;;0.10;0.10;;;15.70;99.90;;;;;;4978236;28;20038;-74
2023/10/26 00:54:24;;;;;;;0.15;0.15;;;15.70;99.90;;;;;;4978438;28;20015;-76
2023/10/26 00:56:51;;;;;;;0.10;0.10;;;15.70;99.90;;;;;;4978050;28;20396;-79
2023/10/26 00:59:18;;;;;;;0.10;0.10;;;15.70;99.90;;;;;;4977928;28;20394;-76
2023/10/26 01:01:48;;;;;;;0.10;0.10;;;15.70;99.90;;;;;;4978127;28;20026;-81
2023/10/26 01:04:14;;;;;;;0.10;0.10;;;15.80;99.90;;;;;;4978073;28;20026;-75
2023/10/26 01:06:41;;;;;;;0.10;0.10;;;15.80;99.90;;;;;;4977931;28;20304;-74
2023/10/26 01:09:08;;;;;;;0.20;0.20;;;17.10;99.90;;;;;;4980065;28;20050;-78
2023/10/26 01:11:35;;;;;;;0.10;0.10;;;16.00;99.90;;;;;;4981736;28;20219;-74
2023/10/26 01:14:01;;;;;;;0.10;0.10;;;16.10;99.90;;;;;;4981823;28;20205;-78
2023/10/26 01:16:27;;;;;;;0.10;0.10;;;16.20;99.90;;;;;;4981621;28;20481;-75
2023/10/26 01:18:53;;;;;;;0.20;0.20;;;16.20;99.90;;;;;;4981615;28;20052;-81
2023/10/26 01:21:18;;;;;;;0.10;0.10;;;16.20;99.90;;;;;;4981646;28;20517;-76
2023/10/26 01:23:44;;;;;;;0.10;0.10;;;16.20;99.90;;;;;;4981458;28;20066;-76
2023/10/26 01:26:10;;;;;;;0.10;0.10;;;16.20;99.90;;;;;;4981420;28;20018;-79
2023/10/26 01:28:36;;;;;;;0.20;0.20;;;16.20;99.90;;;;;;4981473;28;20039;-75
2023/10/26 01:31:01;;;;;;;0.10;0.10;;;16.20;99.90;;;;;;4983178;28;20406;-75
2023/10/26 01:33:27;;;;;;;0.10;0.10;;;16.30;99.90;;;;;;4982292;28;20113;-76
2023/10/26 01:35:53;;;;;;;0.10;0.10;;;16.30;99.90;;;;;;4983972;28;20220;-74
2023/10/26 01:38:19;;;;;;;0.15;0.15;;;16.40;99.90;;;;;;4982483;28;20330;-75
2023/10/26 01:40:44;;;;;;;0.10;0.10;;;16.40;99.90;;;;;;4982025;28;20643;-74
2023/10/26 01:43:10;;;;;;;0.10;0.10;;;16.40;99.90;;;;;;4981495;28;20050;-78
2023/10/26 01:45:36;;;;;;;0.10;0.10;;;16.40;99.90;;;;;;4981328;28;20026;-82
2023/10/26 01:48:03;;;;;;;0.35;0.35;;;16.50;99.90;;;;;;4981289;28;20445;-77
2023/10/26 01:50:29;;;;;;;0.10;0.10;;;16.50;99.90;;;;;;4980925;28;20572;-74
2023/10/26 01:52:55;;;;;;;0.10;0.10;;;16.60;99.90;;;;;;4980973;28;20136;-84
2023/10/26 01:55:21;;;;;;;0.20;0.20;;;16.60;99.90;;;;;;4981074;28;20037;-74
2023/10/26 01:57:47;;;;;;;0.10;0.10;;;16.60;99.90;;;;;;4980999;28;20559;-74
2023/10/26 02:00:13;;;;;;;0.10;0.10;;;16.60;99.90;;;;;;4981355;28;20103;-74
2023/10/26 02:02:39;;;;;;;0.17;0.17;;;16.60;99.90;;;;;;4980748;28;20019;-75
2023/10/26 02:05:05;;;;;;;0.10;0.10;;;16.50;99.90;;;;;;4981081;28;20521;-79
2023/10/26 02:07:30;;;;;;;0.10;0.10;;;16.50;99.90;;;;;;4980941;28;20132;-76
2023/10/26 02:09:56;;;;;;;0.10;0.10;;;16.40;99.90;;;;;;4980826;28;20113;-74
2023/10/26 02:12:22;;;;;;;0.10;0.10;;;16.40;99.90;;;;;;4980944;28;20080;-86
2023/10/26 02:14:49;;;;;;;0.10;0.10;;;16.30;99.90;;;;;;4980682;28;20489;-74
2023/10/26 02:17:15;;;;;;;0.10;0.10;;;16.30;99.90;;;;;;4981038;28;20026;-88
2023/10/26 02:19:41;;;;;;;0.10;0.10;;;16.20;99.90;;;;;;4980524;28;20019;-84
2023/10/26 02:22:06;;;;;;;0.10;0.10;;;16.20;99.90;;;;;;4980102;28;20330;-84
2023/10/26 02:24:32;;;;;;;0.10;0.10;;;16.10;99.90;;;;;;4980397;28;20026;-76
2023/10/26 02:26:58;;;;;;;0.10;0.10;;;16.10;99.90;;;;;;4980578;28;20453;-73
2023/10/26 02:29:24;;;;;;;0.10;0.10;;;16.00;99.90;;;;;;4981344;28;20425;-74
2023/10/26 02:31:50;;;;;;;0.10;0.10;;;18.00;99.90;;;;;;4982996;28;20505;-74
2023/10/26 02:34:16;;;;;;;0.47;0.47;;;16.00;99.90;;;;;;4982667;28;20026;-74
2023/10/26 02:36:42;;;;;;;0.10;0.10;;;16.10;99.90;;;;;;4983154;28;20022;-76
2023/10/26 02:39:07;;;;;;;0.20;0.20;;;16.10;99.90;;;;;;4982401;28;20027;-73
2023/10/26 02:41:33;;;;;;;0.10;0.10;;;16.10;99.90;;;;;;4981811;28;20235;-75
2023/10/26 02:43:59;;;;;;;0.10;0.10;;;;;;;;;;4981885;28;20026;-74
2023/10/26 02:46:25;;;;;;;0.10;0.10;;;16.10;99.90;;;;;;4980885;28;20044;-76
2023/10/26 02:48:51;;;;;;;0.10;0.10;;;16.00;99.90;;;;;;4980007;28;20517;-79
2023/10/26 02:51:19;;;;;;;0.13;0.13;;;16.00;99.90;;;;;;4981331;28;20049;-74
2023/10/26 02:53:45;;;;;;;0.10;0.10;;;15.60;99.90;;;;;;4980693;28;20034;-77
2023/10/26 02:56:11;;;;;;;0.10;0.10;;;15.90;99.90;;;;;;4980265;28;20097;-82
2023/10/26 02:58:37;;;;;;;0.10;0.10;;;;;;;;;;4980430;28;20624;-75
2023/10/26 03:01:03;;;;;;;0.10;0.10;;;16.00;99.90;;;;;;4979683;28;20027;-74
2023/10/26 03:03:29;;;;;;;0.10;0.10;;;16.10;99.90;;;;;;4979767;28;20026;-75
2023/10/26 03:05:58;;;;;;;0.10;0.10;;;16.20;99.90;;;;;;4979476;28;20082;-76
2023/10/26 03:08:24;;;;;;;0.10;0.10;;;16.10;99.90;;;;;;4979535;28;20060;-81
2023/10/26 03:10:50;;;;;;;0.10;0.10;;;16.10;99.90;;;;;;4979926;28;20030;-76
2023/10/26 03:13:16;;;;;;;0.10;0.10;;;16.20;99.90;;;;;;4979636;28;20046;-74
2023/10/26 03:15:41;;;;;;;0.10;0.10;;;16.10;99.90;;;;;;4979530;28;20110;-77
2023/10/26 03:18:07;;;;;;;0.10;0.10;;;16.00;99.90;;;;;;4979804;28;20524;-80
2023/10/26 03:20:33;;;;;;;0.10;0.10;;;16.00;99.90;;;;;;4979183;28;20513;-75
2023/10/26 03:22:59;;;;;;;0.10;0.10;;;16.10;99.90;;;;;;4979298;28;20417;-76
2023/10/26 03:25:25;;;;;;;0.13;0.13;;;;;;;;;;4979231;28;20102;-75
2023/10/26 03:27:51;;;;;;;0.10;0.10;;;16.00;99.90;;;;;;4979089;28;20035;-79
2023/10/26 03:30:18;;;;;;;0.20;0.20;;;16.00;99.90;;;;;;4978971;28;20054;-75
2023/10/26 03:32:44;;;;;;;0.10;0.10;;;16.00;99.90;;;;;;4978463;28;20203;-79
2023/10/26 03:35:10;;;;;;;0.10;0.10;;;16.00;99.90;;;;;;4978881;28;20033;-79
2023/10/26 03:37:37;;;;;;;0.10;0.10;;;16.10;99.90;;;;;;4979341;28;20097;-77
2023/10/26 03:40:06;;;;;;;0.20;0.20;;;16.20;99.90;;;;;;4978810;28;20076;-75
2023/10/26 03:42:32;;;;;;;0.10;0.10;;;16.10;99.90;;;;;;4979370;28;20070;-85
2023/10/26 03:44:58;;;;;;;0.10;0.10;;;16.20;99.90;;;;;;4979042;28;20019;-84
2023/10/26 03:47:23;;;;;;;0.10;0.10;;;16.10;99.90;;;;;;4979072;28;20049;-77
2023/10/26 03:49:52;;;;;;;0.10;0.10;;;16.10;99.90;;;;;;4979237;28;20081;-80
2023/10/26 03:52:20;;;;;;;0.10;0.10;;;16.20;99.90;;;;;;4978613;28;20603;-78
2023/10/26 03:54:46;;;;;;;0.10;0.10;;;16.30;99.90;;;;;;4978922;28;20030;-76
2023/10/26 03:57:13;;;;;;;0.10;0.10;;;16.30;99.90;;;;;;4979226;28;20109;-75
2023/10/26 03:59:39;;;;;;;0.13;0.13;;;16.30;99.90;;;;;;4979176;28;20324;-77
2023/10/26 04:02:05;;;;;;;0.10;0.10;;;16.40;99.90;;;;;;4979167;28;20053;-86
2023/10/26 04:04:30;;;;;;;0.10;0.10;;;16.30;99.90;;;;;;4979361;28;20503;-74
2023/10/26 04:07:00;;;;;;;0.10;0.10;;;16.30;99.90;;;;;;4979008;28;20033;-92
2023/10/26 04:09:25;;;;;;;0.10;0.10;;;16.20;99.90;;;;;;4979062;28;20105;-77
2023/10/26 04:11:51;;;;;;;0.20;0.20;;;16.20;99.90;;;;;;4978991;28;20481;-78
2023/10/26 04:14:17;;;;;;;0.10;0.10;;;16.30;99.90;;;;;;4979037;28;20497;-76
2023/10/26 04:16:47;;;;;;;0.10;0.10;;;16.20;99.90;;;;;;4979303;28;20721;-73
2023/10/26 04:19:13;;;;;;;0.10;0.10;;;16.20;99.90;;;;;;4978303;28;20034;-77
2023/10/26 04:21:39;;;;;;;0.10;0.10;;;16.10;99.90;;;;;;4978675;28;20022;-74
2023/10/26 04:24:05;;;;;;;0.20;0.20;;;16.10;99.90;;;;;;4978544;28;20535;-74
2023/10/26 04:26:31;;;;;;;0.10;0.10;;;16.10;99.90;;;;;;4978400;28;20027;-77
2023/10/26 04:28:57;;;;;;;0.10;0.10;;;16.10;99.90;;;;;;4979713;28;20069;-78
2023/10/26 04:31:22;;;;;;;0.15;0.15;;;16.10;99.90;;;;;;4977636;28;20718;-77
2023/10/26 04:33:49;;;;;;;0.10;0.10;;;16.10;99.90;;;;;;4977999;28;20061;-74
2023/10/26 04:36:15;;;;;;;0.10;0.10;;;16.00;99.90;;;;;;4977995;28;20255;-76
2023/10/26 04:38:41;;;;;;;0.10;0.10;;;16.10;99.90;;;;;;4983460;28;20040;-76
2023/10/26 04:41:07;;;;;;;0.10;0.10;;;16.10;99.90;;;;;;4979848;28;20090;-75
2023/10/26 04:43:32;;;;;;;0.10;0.10;;;16.00;99.90;;;;;;4982723;28;20030;-75
2023/10/26 04:45:58;;;;;;;0.10;0.10;;;16.00;99.90;;;;;;4982644;28;20034;-75
2023/10/26 04:48:24;;;;;;;0.10;0.10;;;16.00;99.90;;;;;;4982470;28;20022;-75
2023/10/26 04:50:50;;;;;;;0.10;0.10;;;19.30;99.90;;;;;;4982480;28;20061;-77
2023/10/26 04:53:16;;;;;;;0.10;0.10;;;16.00;99.90;;;;;;4982220;28;20029;-74
2023/10/26 04:55:42;;;;;;;0.10;0.10;;;15.90;99.90;;;;;;4982449;28;20034;-83
2023/10/26 04:58:08;;;;;;;0.10;0.10;;;;;;;;;;4982586;28;20687;-85
2023/10/26 05:00:34;;;;;;;0.10;0.10;;;16.00;99.90;;;;;;4982512;28;20022;-75
2023/10/26 05:02:59;;;;;;;0.10;0.10;;;16.00;99.90;;;;;;4982517;28;20196;-80
2023/10/26 05:05:26;;;;;;;0.10;0.10;;;16.00;99.90;;;;;;4982380;28;20023;-76
2023/10/26 05:07:51;;;;;;;0.10;0.10;;;16.00;99.90;;;;;;4981497;28;20030;-80
2023/10/26 05:10:17;;;;;;;0.10;0.10;;;16.00;99.90;;;;;;4982217;28;20038;-76
2023/10/26 05:12:43;;;;;;;0.10;0.10;;;16.00;99.90;;;;;;4982215;28;20387;-77
2023/10/26 05:15:09;;;;;;;0.10;0.10;;;18.30;99.90;;;;;;4982439;28;20027;-75
2023/10/26 05:17:37;;;;;;;0.10;0.10;;;16.00;99.90;;;;;;4984467;28;20018;-76
2023/10/26 05:20:03;;;;;;;0.10;0.10;;;16.00;99.90;;;;;;4985054;28;20037;-79
2023/10/26 05:22:29;;;;;;;0.10;0.10;;;16.00;99.90;;;;;;4984671;28;20034;-79
2023/10/26 05:24:55;;;;;;;0.10;0.10;;;16.00;99.90;;;;;;4983752;28;20076;-85
2023/10/26 05:27:21;;;;;;;0.10;0.10;;;16.00;99.90;;;;;;4984188;28;20152;-80
2023/10/26 05:29:46;;;;;;;0.10;0.10;;;16.00;99.90;;;;;;4981648;28;20521;-82
2023/10/26 05:32:12;;;;;;;0.10;0.10;;;16.10;99.90;;;;;;4981757;28;20528;-75
2023/10/26 05:34:38;;;;;;;0.10;0.10;;;16.10;99.90;;;;;;4982075;28;20552;-77
2023/10/26 05:37:03;;;;;;;0.10;0.10;;;16.10;99.90;;;;;;4981625;28;20018;-77
2023/10/26 05:39:32;;;;;;;0.17;0.17;;;16.20;99.90;;;;;;4982511;28;20105;-77
2023/10/26 05:41:58;;;;;;;0.10;0.10;;;16.20;99.90;;;;;;4982977;28;20094;-78
2023/10/26 05:44:25;;;;;;;0.10;0.10;;;16.20;99.90;;;;;;4983289;28;20054;-79
2023/10/26 05:46:51;;;;;;;0.10;0.10;;;16.30;99.90;;;;;;4982176;28;20026;-79
2023/10/26 05:49:16;;;;;;;0.10;0.10;;;16.30;99.90;;;;;;4981273;28;20026;-77
2023/10/26 05:51:42;;;;;;;0.10;0.10;;;16.50;99.90;;;;;;4981236;28;20045;-76
2023/10/26 05:54:08;;;;;;;0.10;0.10;;;16.50;99.90;;;;;;4980402;28;20027;-74
2023/10/26 05:56:34;;;;;;;0.10;0.10;;;16.60;99.90;;;;;;4981352;28;20030;-79
2023/10/26 05:58:59;;;;;;;0.10;0.10;;;16.60;99.90;;;;;;4981584;28;20018;-76
2023/10/26 06:01:25;;;;;;;0.10;0.10;;;16.60;99.90;;;;;;4981500;28;20373;-76
2023/10/26 06:03:51;;;;;;;0.20;0.20;;;16.70;99.90;;;;;;4981175;28;20041;-75
2023/10/26 06:06:19;;;;;;;0.10;0.10;;;16.70;99.90;;;;;;4981093;28;20105;-76
2023/10/26 06:08:46;;;;;;;0.10;0.10;;;16.70;99.90;;;;;;4981045;28;20030;-77
2023/10/26 06:11:12;;;;;;;0.10;0.10;;;16.70;99.90;;;;;;4980464;28;20027;-76
2023/10/26 06:13:38;;;;;;;0.10;0.10;;;16.70;99.90;;;;;;4979399;28;20468;-76
2023/10/26 06:16:04;;;;;;;0.10;0.10;;;16.80;99.90;;;;;;4980823;28;20030;-74
2023/10/26 06:18:30;;;;;;;0.10;0.10;;;16.80;99.90;;;;;;4980448;28;20335;-75
2023/10/26 06:21:00;;;;;;;0.10;0.10;;;16.90;99.90;;;;;;4980357;28;20035;-74
2023/10/26 06:23:27;;;;;;;0.20;0.20;;;17.00;99.90;;;;;;4981062;28;20390;-75
2023/10/26 06:26:00;;;;;;;0.10;0.10;;;17.10;99.90;;;;;;4983964;28;20022;-75
2023/10/26 06:28:27;;;;;;;0.10;0.10;;;17.20;99.90;;;;;;4981875;28;20098;-78
2023/10/26 06:30:53;;;;;;;0.20;0.20;;;20.50;99.90;;;;;;4983794;28;20074;-75
2023/10/26 06:33:19;;;;;;;0.10;0.10;;;17.30;99.90;;;;;;4984083;28;20497;-81
2023/10/26 06:35:45;;;;;;;0.10;0.10;;;17.30;99.90;;;;;;4982525;28;20038;-77
2023/10/26 06:38:11;;;;;;;0.10;0.10;;;17.30;99.90;;;;;;4982619;28;20109;-77
2023/10/26 06:40:37;;;;;;;0.10;0.10;;;17.30;99.90;;;;;;4979191;28;20113;-76
2023/10/26 06:43:03;;;;;;;0.25;0.25;;;17.40;99.90;;;;;;4980559;28;20038;-83
2023/10/26 06:45:29;;;;;;;0.10;0.10;;;17.40;99.90;;;;;;4978882;28;20034;-85
2023/10/26 06:47:55;;;;;;;0.10;0.10;;;17.50;99.90;;;;;;4979987;28;20081;-75
2023/10/26 06:50:23;;;;;;;0.10;0.10;;;17.60;99.90;;;;;;4979460;28;20457;-85
2023/10/26 06:52:49;;;;;;;0.10;0.10;;;17.70;99.90;;;;;;4979420;28;20037;-74
2023/10/26 06:55:15;;;;;;;0.10;0.10;;;17.60;99.90;;;;;;4979719;28;20027;-85
2023/10/26 06:57:43;;;;;;;0.10;0.10;;;17.70;99.90;;;;;;4980067;28;20456;-79
2023/10/26 07:00:10;;;;;;;0.17;0.17;;;17.70;99.90;;;;;;4981814;28;20256;-75
2023/10/26 07:02:37;;;;;;;0.10;0.10;;;17.70;99.90;;;;;;4980972;28;20237;-75
2023/10/26 07:05:03;;;;;;;0.10;0.10;;;17.70;99.90;;;;;;4983247;28;20019;-75
2023/10/26 07:07:32;;;;;;;0.10;0.10;;;17.70;99.90;;;;;;4979877;28;20018;-78
2023/10/26 07:09:58;;;;;;;0.10;0.10;;;19.00;99.90;;;;;;4979421;28;20612;-74
2023/10/26 07:12:24;;;;;;;0.10;0.10;;;17.80;99.90;;;;;;4979564;28;20120;-74
2023/10/26 07:14:54;;;;;;;0.10;0.10;;;17.80;99.90;;;;;;4979414;28;20037;-73
2023/10/26 07:17:23;;;;;;;0.10;0.10;;;17.80;99.90;;;;;;4979468;28;20034;-75
2023/10/26 07:19:50;;;;;;;0.10;0.10;;;17.80;99.90;;;;;;4979070;28;20533;-75
2023/10/26 07:22:16;;;;;;;0.10;0.10;;;17.70;99.90;;;;;;4979669;28;20234;-76
2023/10/26 07:24:42;;;;;;;0.20;0.20;;;;;;;;;;4980035;28;20319;-79
2023/10/26 07:27:08;;;;;;;0.20;0.20;;;17.80;99.90;;;;;;4978995;28;20724;-75
2023/10/26 07:29:34;;;;;;;0.10;0.10;;;17.80;99.90;;;;;;4979382;28;20362;-75
2023/10/26 07:32:00;;;;;;;0.10;0.10;;;17.90;99.90;;;;;;4979570;28;20307;-76
2023/10/26 07:34:26;;;;;;;0.10;0.10;;;18.20;99.90;;;;;;4978872;28;20041;-79
2023/10/26 07:36:52;;;;;;;0.10;0.10;;;18.40;99.90;;;;;;4979885;28;20674;-81
2023/10/26 07:39:18;;;;;;;0.10;0.10;;;17.40;99.90;;;;;;4978739;28;20327;-74
2023/10/26 07:41:43;;;;;;;0.10;0.10;;;18.80;99.90;;;;;;4978707;28;20720;-80
2023/10/26 07:44:09;;;;;;;0.10;0.10;;;18.90;99.90;;;;;;4979410;28;20030;-81
2023/10/26 07:46:35;;;;;;;0.10;0.10;;;19.00;99.90;;;;;;4978563;28;20402;-75
2023/10/26 07:49:03;;;;;;;4.85;2.17;;;19.00;99.90;;;;;;4978950;28;20088;-80
2023/10/26 07:51:28;;;;;;;0.10;0.10;;;19.00;99.90;;;;;;4979448;28;20042;-79
2023/10/26 07:53:54;;;;;;;0.10;0.10;;;19.00;99.90;;;;;;4979431;28;20367;-76
2023/10/26 07:56:20;;;;;;;0.17;0.17;;;18.90;99.90;;;;;;4981371;28;20036;-76
2023/10/26 07:58:46;;;;;;;0.10;0.10;;;18.80;99.90;;;;;;4979703;28;20282;-77
2023/10/26 08:01:12;;;;;;;0.10;0.10;;;18.80;99.90;;;;;;4979254;28;20030;-75
2023/10/26 08:03:38;;;;;;;0.10;0.10;;;18.70;99.90;;;;;;4979484;28;20520;-77
2023/10/26 08:06:06;;;;;;;0.10;0.10;;;18.80;99.90;;;;;;4980457;28;20653;-77
2023/10/26 08:08:32;;;;;;;0.10;0.10;;;18.70;99.90;;;;;;4980509;28;20100;-75
2023/10/26 08:11:14;;;;;;;0.57;0.57;;;18.80;99.90;;;;;;4980988;28;20532;-76
2023/10/26 08:13:40;;;;;;;0.10;0.10;;;18.80;99.90;;;;;;4979563;28;20231;-76
2023/10/26 08:16:06;;;;;;;0.10;0.10;;;19.00;99.90;;;;;;4979289;28;20027;-76
2023/10/26 08:18:33;;;;;;;0.10;0.10;;;19.00;99.90;;;;;;4979841;28;20026;-83
2023/10/26 08:20:59;;;;;;;3.50;2.08;;;19.20;99.90;;;;;;4979706;28;20092;-77
2023/10/26 08:23:29;;;;;;;0.10;0.10;;;19.30;99.90;;;;;;4977747;28;20477;-76
2023/10/26 08:25:55;;;;;;;0.10;0.10;;;19.40;99.90;;;;;;4979266;28;20018;-77
2023/10/26 08:28:21;;;;;;;0.10;0.10;;;19.40;99.90;;;;;;4979292;28;20113;-76
2023/10/26 08:30:48;;;;;;;0.20;0.20;;;19.70;99.90;;;;;;4977501;28;20126;-76
2023/10/26 08:33:15;;;;;;;0.10;0.10;;;19.40;99.90;;;;;;4978862;28;20108;-85
2023/10/26 08:35:49;;;;;;;0.10;0.10;;;19.30;99.90;;;;;;4978687;28;20574;-78
2023/10/26 08:38:15;;;;;;;0.10;0.10;;;19.30;99.90;;;;;;4979099;28;20029;-77
2023/10/26 08:40:51;;;;;;;0.10;0.10;;;19.30;99.90;;;;;;4979246;28;20026;-86
2023/10/26 08:43:18;;;;;;;0.10;0.10;;;19.20;99.90;;;;;;4979105;28;20039;-82
2023/10/26 08:45:45;;;;;;;0.10;0.10;;;19.30;99.90;;;;;;4981383;28;20394;-75
2023/10/26 08:48:20;;;;;;;0.10;0.10;;;19.30;99.90;;;;;;4980739;28;20023;-75
2023/10/26 08:50:47;;;;;;;0.20;0.20;;;19.30;99.90;;;;;;4979380;28;20301;-75
2023/10/26 08:53:14;;;;;;;0.10;0.10;;;19.40;99.90;;;;;;4977490;28;20527;-77
2023/10/26 08:55:41;;;;;;;0.10;0.10;;;19.30;99.90;;;;;;4978322;28;20026;-75
2023/10/26 08:58:08;;;;;;;0.10;0.10;;;19.40;99.90;;;;;;4978000;28;20510;-75
2023/10/26 09:00:36;;;;;;;0.68;0.68;;;19.60;99.90;;;;;;4977865;28;20022;-75
2023/10/26 09:03:02;;;;;;;0.10;0.10;;;19.70;99.90;;;;;;4978649;28;20030;-88
2023/10/26 09:05:28;;;;;;;0.10;0.10;;;19.60;99.90;;;;;;4978359;28;20029;-75
2023/10/26 09:07:54;;;;;;;0.10;0.10;;;19.60;99.90;;;;;;4978039;28;20032;-74
2023/10/26 09:10:33;;;;;;;0.10;0.10;;;19.70;99.90;;;;;;4978239;28;20022;-75
2023/10/26 09:13:04;;;;;;;0.10;0.10;;;19.80;99.90;;;;;;4978040;28;20117;-74
2023/10/26 09:15:44;;;;;;;0.10;0.10;;;20.00;99.90;;;;;;4977753;28;20585;-77
2023/10/26 09:18:10;;;;;;;0.10;0.10;;;20.10;99.90;;;;;;4977225;28;20030;-74
2023/10/26 09:20:36;;;;;;;0.10;0.10;;;20.20;99.50;;;;;;4977061;28;20295;-75
2023/10/26 09:23:02;;;;;;;0.17;0.17;;;20.10;99.70;;;;;;4977039;28;20066;-74
2023/10/26 09:25:28;;;;;;;0.10;0.10;;;20.10;99.70;;;;;;4975933;28;20510;-75
2023/10/26 09:28:02;;;;;;;0.10;0.10;;;20.20;99.80;;;;;;4977130;28;20029;-74
2023/10/26 09:30:30;;;;;;;0.10;0.10;;;20.30;99.70;;;;;;4979428;28;20537;-75
2023/10/26 09:32:59;;;;;;;0.10;0.10;;;20.40;99.30;;;;;;4980832;28;20490;-81
2023/10/26 09:35:32;;;;;;;0.10;0.10;;;20.50;98.70;;;;;;4981560;28;20172;-74
2023/10/26 09:37:59;;;;;;;0.10;0.10;;;20.60;98.70;;;;;;4982958;28;20101;-78
2023/10/26 09:40:26;;;;;;;0.10;0.10;;;20.30;98.30;;;;;;4981438;28;20304;-76
2023/10/26 09:42:52;;;;;;;0.20;0.20;;;20.80;98.70;;;;;;4981234;28;20066;-77
2023/10/26 09:45:19;;;;;;;0.10;0.10;;;21.00;98.60;;;;;;4980653;28;20014;-76
2023/10/26 09:47:46;;;;;;;0.10;0.10;;;21.30;97.80;;;;;;4981605;28;20031;-75
2023/10/26 09:50:12;;;;;;;0.10;0.10;;;21.20;97.30;;;;;;4981621;28;20418;-75
2023/10/26 09:52:38;;;;;;;0.10;0.10;;;21.50;96.70;;;;;;4981495;28;20042;-77
2023/10/26 09:55:07;;;;;;;0.10;0.10;;;21.30;96.60;;;;;;4981207;28;20026;-75
2023/10/26 09:57:50;;;;;;;19.70;2.83;;;21.40;96.50;;;;;;4980384;28;20029;-75
2023/10/26 10:00:17;;;;;;;0.20;0.20;;;21.20;96.20;;;;;;4980425;28;20088;-76
2023/10/26 10:02:43;;;;;;;0.10;0.10;;;21.20;96.60;;;;;;4980697;28;20022;-75
2023/10/26 10:05:41;;;;;;;0.10;0.10;;;21.20;96.40;;;;;;4982032;28;20033;-75
2023/10/26 10:08:07;;;;;;;0.10;0.10;;;20.90;96.70;;;;;;4982613;28;20030;-75
2023/10/26 10:10:33;;;;;;;0.10;0.10;;;20.90;97.00;;;;;;4980620;28;20031;-75
2023/10/26 10:13:00;;;;;;;0.10;0.10;;;20.80;97.20;;;;;;4980220;28;20635;-75
2023/10/26 10:15:39;;;;;;;0.10;0.10;;;20.90;97.00;;;;;;4980516;28;20134;-75
2023/10/26 10:18:08;;;;;;;0.10;0.10;;;20.80;97.10;;;;;;4979653;28;20022;-75
2023/10/26 10:20:36;;;;;;;0.10;0.10;;;20.70;97.50;;;;;;4979943;28;20026;-75
2023/10/26 10:23:03;;;;;;;0.10;0.10;;;20.70;97.60;;;;;;4979396;28;20331;-75
2023/10/26 10:25:50;;;;;;;0.10;0.10;;;20.60;97.60;;;;;;4978426;28;20180;-74
2023/10/26 10:28:19;;;;;;;0.17;0.17;;;20.50;97.90;;;;;;4980100;28;20018;-75
2023/10/26 10:30:59;;;;;;;0.10;0.10;;;20.40;98.10;;;;;;4979580;28;20307;-75
2023/10/26 10:33:26;;;;;;;0.10;0.10;;;20.40;98.40;;;;;;4979706;28;20030;-75
2023/10/26 10:36:03;;;;;;;0.10;0.10;;;20.40;98.30;;;;;;4980251;28;20212;-78
2023/10/26 10:38:31;;;;;;;0.10;0.10;;;20.60;98.20;;;;;;4981732;28;20045;-75
2023/10/26 10:41:00;;;;;;;0.10;0.10;;;20.90;97.30;;;;;;4979611;28;20027;-77
2023/10/26 10:43:40;;;;;;;0.10;0.10;;;21.20;97.10;;;;;;4979965;28;20425;-76
2023/10/26 10:46:25;;;;;;;0.10;0.10;;;21.40;96.20;;;;;;4979732;28;20022;-79
2023/10/26 10:49:05;;;;;;;0.10;0.10;;;21.10;96.00;;;;;;4979726;28;20038;-83
2023/10/26 10:51:36;;;;;;;0.10;0.10;;;20.90;97.00;;;;;;4980037;28;20494;-75
2023/10/26 10:54:05;;;;;;;0.10;0.10;;;20.80;97.10;;;;;;4981140;28;20054;-75
2023/10/26 10:56:39;;;;;;;0.10;0.10;;;20.80;97.10;;;;;;4980929;28;20041;-76
2023/10/26 10:59:26;;;;;;;0.10;0.10;;;20.60;97.80;;;;;;4980320;28;20025;-76
2023/10/26 11:02:14;;;;;;;0.10;0.10;;;20.50;97.50;;;;;;4978176;28;20220;-75
2023/10/26 11:04:57;;;;;;;0.10;0.10;;;20.50;98.00;;;;;;4979791;28;20026;-75
2023/10/26 11:07:27;;;;;;;0.10;0.10;;;20.40;98.40;;;;;;4979641;28;20433;-76
2023/10/26 11:09:57;;;;;;;0.10;0.10;;;20.30;98.50;;;;;;4977404;28;20125;-74
2023/10/26 11:12:23;;;;;;;0.20;0.20;;;20.20;98.90;;;;;;4979271;28;20034;-74
2023/10/26 11:14:50;;;;;;;0.32;0.32;;;20.00;99.20;;;;;;4979122;28;20224;-80
2023/10/26 11:17:21;;;;;;;2.20;2.05;;;19.90;99.40;;;;;;4978865;28;20438;-74
2023/10/26 11:19:51;;;;;;;0.10;0.10;;;19.80;99.80;;;;;;4979542;28;20027;-74
2023/10/26 11:22:18;;;;;;;0.10;0.10;;;19.60;99.90;;;;;;4978617;28;20030;-76
2023/10/26 11:24:45;;;;;;;0.10;0.10;;;19.50;99.90;;;;;;4978827;28;20040;-75
2023/10/26 11:27:19;;;;;;;0.10;0.10;;;19.50;99.90;;;;;;4977642;28;20054;-76
2023/10/26 11:29:59;;;;;;;0.30;0.30;;;19.50;99.90;;;;;;4979171;28;20022;-74
2023/10/26 11:32:25;;;;;;;0.40;0.40;;;19.50;99.90;;;;;;4979699;28;20034;-76
2023/10/26 11:35:05;;;;;;;0.10;0.10;;;19.50;99.90;;;;;;4980706;28;20057;-84
2023/10/26 11:37:32;;;;;;;0.10;0.10;;;;;;;;;;4979822;28;20024;-75
2023/10/26 11:39:58;;;;;;;0.10;0.10;;;19.70;99.90;;;;;;4979325;28;20026;-76
2023/10/26 11:42:42;;;;;;;0.10;0.10;;;19.80;99.90;;;;;;4979444;28;20539;-74
2023/10/26 11:45:08;;;;;;;0.10;0.10;;;19.80;99.90;;;;;;4978549;28;20104;-74
2023/10/26 11:47:48;;;;;;;0.10;0.10;;;19.70;99.90;;;;;;4978802;28;20061;-77
2023/10/26 11:50:28;;;;;;;0.10;0.10;;;19.80;99.90;;;;;;4979935;28;20105;-75
2023/10/26 11:52:59;;;;;;;0.10;0.10;;;19.90;99.90;;;;;;4976110;28;20517;-75
2023/10/26 11:55:27;;;;;;;0.10;0.10;;;20.00;99.90;;;;;;4977199;28;20039;-83
2023/10/26 11:57:56;;;;;;;0.10;0.10;;;19.90;99.90;;;;;;4978506;28;20018;-77
2023/10/26 12:00:22;;;;;;;0.10;0.10;;;19.90;99.90;;;;;;4978051;28;20087;-80
2023/10/26 12:02:48;;;;;;;0.10;0.10;;;19.90;99.90;;;;;;4977980;28;20076;-75
2023/10/26 12:05:16;;;;;;;0.55;0.55;;;19.80;99.90;;;;;;4978136;28;20029;-73
2023/10/26 12:07:46;;;;;;;0.13;0.13;;;19.80;99.90;;;;;;4977716;28;20026;-74
2023/10/26 12:10:12;;;;;;;0.10;0.10;;;20.70;99.90;;;;;;4977757;28;20026;-77
2023/10/26 12:12:38;;;;;;;0.10;0.10;;;;;;;;;;4977963;28;20023;-74
2023/10/26 12:15:05;;;;;;;0.10;0.10;;;19.70;99.90;;;;;;4977372;28;20556;-75
2023/10/26 12:17:31;;;;;;;0.10;0.10;;;19.80;99.90;;;;;;4978027;28;20034;-75
2023/10/26 12:19:57;;;;;;;0.10;0.10;;;19.80;99.90;;;;;;4977541;28;20398;-78
2023/10/26 12:22:24;;;;;;;0.10;0.10;;;19.80;99.90;;;;;;4977553;28;20655;-75
2023/10/26 12:24:50;;;;;;;0.20;0.20;;;19.70;99.90;;;;;;4977718;28;20019;-74
2023/10/26 12:27:19;;;;;;;0.10;0.10;;;19.70;99.90;;;;;;4977763;28;20058;-79
2023/10/26 12:29:46;;;;;;;0.10;0.10;;;19.60;99.90;;;;;;4978030;28;20142;-75
2023/10/26 12:32:12;;;;;;;0.20;0.20;;;19.50;99.90;;;;;;4977676;28;20038;-75
2023/10/26 12:34:39;;;;;;;0.10;0.10;;;19.50;99.90;;;;;;4977490;28;20223;-75
2023/10/26 12:37:05;;;;;;;0.10;0.10;;;19.40;99.90;;;;;;4975990;28;20045;-79
2023/10/26 12:39:31;;;;;;;0.10;0.10;;;19.50;99.90;;;;;;4978101;28;20022;-76
2023/10/26 12:41:58;;;;;;;0.10;0.10;;;19.50;99.90;;;;;;4976663;28;20137;-76
2023/10/26 12:44:24;;;;;;;0.10;0.10;;;19.60;99.90;;;;;;4978431;28;20259;-75
2023/10/26 12:46:53;;;;;;;0.10;0.10;;;19.60;99.90;;;;;;4978186;28;20022;-74
2023/10/26 12:49:21;;;;;;;10.15;9.60;;;19.70;99.90;;;;;;4977554;28;20097;-75